East Brunswick, NJ - U.S.A.

40° 26' 15"N, 74° 23' 24"W, Elevation 138 ft.

Sunday, April 20, 2014
11:50:00 AM (Eastern)

110th day of the year

Updated and refreshed every 2 minutes. Weather computer in use: Davis Vantage PRO2 Plus


Yesterday's Weather Here

Current Weather

Current Today's Highs and Lows
Temperature 53.3°F (11.8°C) ↑ 53.4° 11:44 AM
44.1° 6:40 AM
Dew Point 24.7°F (-4.1°C) ↓ 37.0° 5:42 AM
24.5° 11:35 AM
Humidity 33% ↓ 76% 6:41 AM
33% 11:45 AM
Wind Gust E 15 mph E 22 9:45 AM
NNE 0 12:00 AM
Wind Speed E 6 mph ↑
Light breeze (2)
ENE 12 8:39 AM
NNE 0 12:00 AM
Precipitation 0.00" (0.00 mm) 1
Last 24 hours 0.00"
Instantaneous rate 0.00"/hr
Storm total 0.00"
0.00"2 12:00 AM
0.00"2 12:00 AM
Barometer 30.493" (1032.6 mb)
Falling
30.496" 10:14 AM
30.341" 12:00 AM
Wind Chill Gust 51°F (10°C) 53° 11:45 AM
37° 7:03 AM
Wind Chill Avg 51°F (11°C) 52° 11:46 AM
40° 7:04 AM
Heat Index 53°F (11.7°C) 53° 11:11 AM
44° 5:43 AM
Sunshine 898 W/m2
Sunshine minutes 209
911 11:41 AM
0 12:00 AM
UV Index  4.6 4.6 11:40 AM
0.0 12:00 AM
1. Daily total rainfall.
2. Maximum and minimum rainfall are the instantaneous rainfall rates.

'KEBR' METAR REPORT:

METAR KEBR 201550Z AUTO 08006KT 12/M04 A3049 RMK AO1 SLP326 T01181041 

Webcam
EBWeather Image

Video - Last 3 Hours

Video - Yesterday

Video - Last 3 Days

Regional Satellite/Weather

Satellite/Radar 

Data generated by WxSolution Version 1.8.7, Build 2013.11.03.